createdAt,value
2023-03-26T00:01:29.839Z,9.03
2023-03-26T00:06:39.162Z,9.03
2023-03-26T00:11:48.329Z,8.99
2023-03-26T00:16:51.449Z,8.94
2023-03-26T00:21:54.495Z,8.90
2023-03-26T00:26:57.513Z,8.88
2023-03-26T00:32:00.526Z,8.87
2023-03-26T00:37:03.550Z,8.85
2023-03-26T00:42:06.986Z,8.78
2023-03-26T00:47:09.973Z,8.70
2023-03-26T00:52:14.301Z,8.62
2023-03-26T00:57:25.803Z,8.58
2023-03-26T01:02:36.026Z,8.60
2023-03-26T01:07:39.101Z,8.62
2023-03-26T01:12:42.333Z,8.62
2023-03-26T01:17:45.490Z,8.57
2023-03-26T01:22:52.431Z,8.52
2023-03-26T01:27:56.980Z,8.52
2023-03-26T01:33:22.101Z,8.55
2023-03-26T01:38:53.079Z,8.54
2023-03-26T01:44:36.399Z,8.51
2023-03-26T01:49:39.420Z,8.48
2023-03-26T01:54:43.143Z,8.50
2023-03-26T01:59:59.767Z,8.57
2023-03-26T02:05:28.677Z,8.59
2023-03-26T02:10:47.538Z,8.55
2023-03-26T02:16:03.542Z,8.50
2023-03-26T02:21:20.510Z,8.48
2023-03-26T02:26:24.781Z,8.52
2023-03-26T02:31:28.409Z,8.57
2023-03-26T02:36:31.641Z,8.59
2023-03-26T02:41:34.761Z,8.59
2023-03-26T02:46:37.736Z,8.57
2023-03-26T02:51:40.866Z,8.58
2023-03-26T02:56:43.876Z,8.59
2023-03-26T03:01:46.828Z,8.64
2023-03-26T03:06:53.129Z,8.68
2023-03-26T03:11:56.356Z,8.71
2023-03-26T03:16:59.337Z,8.71
2023-03-26T03:22:02.391Z,8.69
2023-03-26T03:27:05.682Z,8.63
2023-03-26T03:32:08.686Z,8.65
2023-03-26T03:37:12.124Z,8.71
2023-03-26T03:42:15.078Z,8.73
2023-03-26T03:47:18.020Z,8.70
2023-03-26T03:52:21.022Z,8.69
2023-03-26T03:57:24.279Z,8.68
2023-03-26T04:02:30.467Z,8.68
2023-03-26T04:07:33.672Z,8.70
2023-03-26T04:12:36.611Z,8.76
2023-03-26T04:17:42.763Z,8.78
2023-03-26T04:22:45.952Z,8.83
2023-03-26T04:27:49.166Z,8.82
2023-03-26T04:32:52.215Z,8.82
2023-03-26T04:37:55.228Z,8.81
2023-03-26T04:43:00.031Z,8.81
2023-03-26T04:48:02.997Z,8.86
2023-03-26T04:53:05.984Z,8.90
2023-03-26T04:58:09.568Z,8.89
2023-03-26T05:03:13.190Z,8.86
2023-03-26T05:08:16.182Z,8.83
2023-03-26T05:13:19.189Z,8.82
2023-03-26T05:18:22.180Z,8.87
2023-03-26T05:23:25.152Z,8.96
2023-03-26T05:28:28.368Z,9.07
2023-03-26T05:33:31.400Z,9.25
2023-03-26T05:38:34.492Z,9.37
2023-03-26T05:43:37.497Z,9.36
2023-03-26T05:48:40.577Z,9.28
2023-03-26T05:53:43.784Z,9.27
2023-03-26T05:58:47.673Z,9.33
2023-03-26T06:03:51.660Z,9.29
2023-03-26T06:09:01.831Z,9.24
2023-03-26T06:14:07.138Z,9.23
2023-03-26T06:19:10.153Z,9.27
2023-03-26T06:24:13.180Z,9.34
2023-03-26T06:29:16.359Z,9.47
2023-03-26T06:34:19.517Z,9.47
2023-03-26T06:39:22.552Z,9.37
2023-03-26T06:44:25.762Z,9.22
2023-03-26T06:49:28.932Z,9.14
2023-03-26T06:54:32.097Z,9.15
2023-03-26T06:59:35.109Z,9.23
2023-03-26T07:04:38.297Z,9.34
2023-03-26T07:09:41.232Z,9.48
2023-03-26T07:14:44.347Z,9.70
2023-03-26T07:19:47.274Z,9.92
2023-03-26T07:24:52.114Z,10.06
2023-03-26T07:30:32.725Z,10.16
2023-03-26T07:36:04.577Z,10.26
2023-03-26T07:41:22.456Z,10.39
2023-03-26T07:46:41.641Z,10.46
2023-03-26T07:51:45.021Z,10.50
2023-03-26T07:57:08.222Z,10.47
2023-03-26T08:02:31.667Z,10.46
2023-03-26T08:07:56.444Z,10.44
2023-03-26T08:13:17.874Z,10.46
2023-03-26T08:18:54.362Z,10.53
2023-03-26T08:24:28.370Z,10.68
2023-03-26T08:29:45.414Z,10.85
2023-03-26T08:34:48.478Z,10.89
2023-03-26T08:39:51.680Z,10.90
2023-03-26T08:45:31.561Z,10.87
2023-03-26T08:51:28.679Z,10.74
2023-03-26T08:56:52.818Z,10.86
2023-03-26T09:01:55.798Z,10.89
2023-03-26T09:07:29.370Z,10.81
2023-03-26T09:13:33.694Z,10.73
2023-03-26T09:19:14.811Z,10.76
2023-03-26T09:24:54.620Z,10.81
2023-03-26T09:30:35.228Z,10.81
2023-03-26T09:35:53.414Z,10.89
2023-03-26T09:41:13.578Z,10.99
2023-03-26T09:46:39.003Z,11.00
2023-03-26T09:52:27.289Z,11.05
2023-03-26T09:57:53.974Z,11.18
2023-03-26T10:03:28.070Z,11.28
2023-03-26T10:09:11.684Z,11.22
2023-03-26T10:14:38.645Z,11.17
2023-03-26T10:19:47.537Z,11.08
2023-03-26T10:25:31.142Z,10.68
2023-03-26T10:30:39.486Z,10.23
2023-03-26T10:36:12.452Z,10.01
2023-03-26T10:41:42.620Z,9.89
2023-03-26T10:47:43.928Z,10.00
2023-03-26T10:52:57.530Z,10.15
2023-03-26T10:58:23.726Z,10.25
2023-03-26T11:03:52.196Z,10.33
2023-03-26T11:09:03.014Z,10.52
2023-03-26T11:14:35.646Z,10.71
2023-03-26T11:19:41.062Z,10.96
2023-03-26T11:25:05.651Z,11.16
2023-03-26T11:30:28.764Z,11.38
2023-03-26T11:35:40.563Z,11.49
2023-03-26T11:40:50.885Z,11.64
2023-03-26T11:45:54.224Z,11.65
2023-03-26T11:51:08.178Z,11.48
2023-03-26T11:56:38.076Z,11.10
2023-03-26T12:01:56.605Z,10.65
2023-03-26T12:07:21.238Z,10.40
2023-03-26T12:12:33.115Z,10.30
2023-03-26T12:17:40.241Z,10.35
2023-03-26T12:22:44.320Z,10.43
2023-03-26T12:27:50.972Z,10.45
2023-03-26T12:33:26.251Z,10.51
2023-03-26T12:38:33.163Z,10.54
2023-03-26T12:44:56.032Z,10.57
2023-03-26T12:49:08.974Z,10.63
2023-03-26T12:54:51.372Z,10.73
2023-03-26T13:00:29.169Z,10.90
2023-03-26T13:06:23.318Z,10.95
2023-03-26T13:12:15.614Z,10.97
2023-03-26T13:17:33.667Z,10.98
2023-03-26T13:23:08.832Z,10.95
2023-03-26T13:28:47.155Z,10.91
2023-03-26T13:34:13.556Z,10.92
2023-03-26T13:39:33.955Z,10.93
2023-03-26T13:45:14.490Z,10.96
2023-03-26T13:50:37.434Z,11.05
2023-03-26T13:55:53.522Z,11.18
2023-03-26T14:01:18.711Z,11.31
2023-03-26T14:07:01.647Z,11.42
2023-03-26T14:12:22.169Z,11.52
2023-03-26T14:17:39.040Z,11.58
2023-03-26T14:23:25.016Z,11.54
2023-03-26T14:28:58.753Z,11.48
2023-03-26T14:34:54.194Z,11.41
2023-03-26T14:40:28.989Z,11.43
2023-03-26T14:46:07.723Z,11.58
2023-03-26T14:51:55.871Z,11.76
2023-03-26T14:57:26.498Z,11.84
2023-03-26T15:03:20.625Z,11.84
2023-03-26T15:09:08.026Z,11.84
2023-03-26T15:14:19.951Z,11.83
2023-03-26T15:19:55.128Z,11.84
2023-03-26T15:25:16.527Z,11.83
2023-03-26T15:30:57.988Z,11.77
2023-03-26T15:36:41.378Z,11.69
2023-03-26T15:42:12.021Z,11.61
2023-03-26T15:47:50.043Z,11.48
2023-03-26T15:53:19.604Z,11.37
2023-03-26T15:58:44.368Z,11.26
2023-03-26T16:04:23.072Z,11.17
2023-03-26T16:09:42.120Z,11.08
2023-03-26T16:15:21.297Z,11.02
2023-03-26T16:20:35.963Z,10.97
2023-03-26T16:26:40.093Z,10.96
2023-03-26T16:32:10.944Z,10.86
2023-03-26T16:37:50.113Z,10.69
2023-03-26T16:43:24.364Z,10.53
2023-03-26T16:48:36.964Z,10.42
2023-03-26T16:54:00.699Z,10.26
2023-03-26T17:00:04.952Z,10.21
2023-03-26T17:05:35.138Z,10.16
2023-03-26T17:11:22.860Z,10.19
2023-03-26T17:16:33.406Z,10.30
2023-03-26T17:21:55.620Z,10.41
2023-03-26T17:27:01.060Z,10.50
2023-03-26T17:32:14.985Z,10.57
2023-03-26T17:37:23.944Z,10.58
2023-03-26T17:42:35.955Z,10.54
2023-03-26T17:47:47.944Z,10.50
2023-03-26T17:53:19.984Z,10.42
2023-03-26T17:58:29.178Z,10.35
2023-03-26T18:03:54.040Z,10.32
2023-03-26T18:09:52.857Z,10.38
2023-03-26T18:15:07.220Z,10.43
2023-03-26T18:20:25.211Z,10.40
2023-03-26T18:25:34.358Z,10.32
2023-03-26T18:30:48.103Z,10.25
2023-03-26T18:35:55.616Z,10.16
2023-03-26T18:40:59.084Z,10.06
2023-03-26T18:46:03.740Z,9.96
2023-03-26T18:51:07.887Z,9.93
2023-03-26T18:56:43.231Z,9.99
2023-03-26T19:01:48.723Z,10.04
2023-03-26T19:06:55.221Z,10.02
2023-03-26T19:12:06.072Z,9.94
2023-03-26T19:17:09.180Z,9.82
2023-03-26T19:22:12.431Z,9.66
2023-03-26T19:27:16.808Z,9.54
2023-03-26T19:32:32.478Z,9.43
2023-03-26T19:37:50.291Z,9.28
2023-03-26T19:42:53.326Z,9.19
2023-03-26T19:48:07.745Z,9.16
2023-03-26T19:53:32.626Z,9.16
2023-03-26T19:58:36.396Z,9.18
2023-03-26T20:03:41.648Z,9.15
2023-03-26T20:08:45.031Z,9.04
2023-03-26T20:13:49.336Z,8.97
2023-03-26T20:18:52.517Z,8.88
2023-03-26T20:23:55.861Z,8.81
2023-03-26T20:28:59.006Z,8.82
2023-03-26T20:34:02.230Z,8.84
2023-03-26T20:39:09.675Z,8.84
2023-03-26T20:44:15.766Z,8.75
2023-03-26T20:49:19.310Z,8.67
2023-03-26T20:54:25.323Z,8.64
2023-03-26T20:59:28.981Z,8.61
2023-03-26T21:04:32.282Z,8.52
2023-03-26T21:09:35.862Z,8.40
2023-03-26T21:14:42.107Z,8.30
2023-03-26T21:19:47.249Z,8.23
2023-03-26T21:25:03.135Z,8.20
2023-03-26T21:30:14.527Z,8.19
2023-03-26T21:35:18.342Z,8.20
2023-03-26T21:40:21.578Z,8.23
2023-03-26T21:45:25.079Z,8.16
2023-03-26T21:50:28.601Z,8.05
2023-03-26T21:55:42.032Z,7.96
2023-03-26T22:01:03.100Z,7.85
2023-03-26T22:06:37.628Z,7.73
2023-03-26T22:11:42.167Z,7.57
2023-03-26T22:16:45.254Z,7.45
2023-03-26T22:21:48.209Z,7.43
2023-03-26T22:26:51.175Z,7.52
2023-03-26T22:31:54.291Z,7.57
2023-03-26T22:36:57.400Z,7.55
2023-03-26T22:42:02.618Z,7.30
2023-03-26T22:47:05.579Z,7.21
2023-03-26T22:52:08.627Z,7.22
2023-03-26T22:57:12.087Z,7.19
2023-03-26T23:02:16.720Z,7.26
2023-03-26T23:07:19.755Z,7.29
2023-03-26T23:12:22.986Z,7.28
2023-03-26T23:17:25.971Z,7.25
2023-03-26T23:22:28.974Z,7.31
2023-03-26T23:27:33.042Z,7.49
2023-03-26T23:32:38.086Z,7.69
2023-03-26T23:37:42.638Z,7.76
2023-03-26T23:42:47.516Z,7.79
2023-03-26T23:47:50.516Z,7.80
2023-03-26T23:52:53.704Z,7.72
2023-03-26T23:57:56.613Z,7.68
